sensor_id;sensor_type;location;lat;lon;timestamp;P1;durP1;ratioP1;P2;durP2;ratioP2
15363;SDS011;7781;49.690;6.472;2023-03-31T00:02:04;9.30;;;1.70;;
15363;SDS011;7781;49.690;6.472;2023-03-31T00:04:39;9.33;;;2.50;;
15363;SDS011;7781;49.690;6.472;2023-03-31T00:07:12;6.50;;;1.80;;
15363;SDS011;7781;49.690;6.472;2023-03-31T00:09:42;10.07;;;1.70;;
15363;SDS011;7781;49.690;6.472;2023-03-31T00:12:13;5.17;;;2.43;;
15363;SDS011;7781;49.690;6.472;2023-03-31T00:14:43;3.63;;;1.70;;
15363;SDS011;7781;49.690;6.472;2023-03-31T00:17:11;5.97;;;1.50;;
15363;SDS011;7781;49.690;6.472;2023-03-31T00:19:42;6.13;;;1.50;;
15363;SDS011;7781;49.690;6.472;2023-03-31T00:22:17;3.60;;;1.40;;
15363;SDS011;7781;49.690;6.472;2023-03-31T00:24:47;8.63;;;1.67;;
15363;SDS011;7781;49.690;6.472;2023-03-31T00:27:18;4.20;;;1.60;;
15363;SDS011;7781;49.690;6.472;2023-03-31T00:29:46;6.00;;;1.73;;
15363;SDS011;7781;49.690;6.472;2023-03-31T00:32:16;7.07;;;1.83;;
15363;SDS011;7781;49.690;6.472;2023-03-31T00:34:44;7.30;;;1.37;;
15363;SDS011;7781;49.690;6.472;2023-03-31T00:37:13;10.30;;;2.60;;
15363;SDS011;7781;49.690;6.472;2023-03-31T00:39:41;4.50;;;1.70;;
15363;SDS011;7781;49.690;6.472;2023-03-31T00:42:10;3.87;;;1.83;;
15363;SDS011;7781;49.690;6.472;2023-03-31T00:47:49;12.03;;;1.90;;
15363;SDS011;7781;49.690;6.472;2023-03-31T00:50:23;6.40;;;1.80;;
15363;SDS011;7781;49.690;6.472;2023-03-31T00:52:56;9.50;;;2.03;;
15363;SDS011;7781;49.690;6.472;2023-03-31T00:55:30;7.83;;;1.90;;
15363;SDS011;7781;49.690;6.472;2023-03-31T00:58:02;8.00;;;1.60;;
15363;SDS011;7781;49.690;6.472;2023-03-31T01:00:34;9.13;;;2.07;;
15363;SDS011;7781;49.690;6.472;2023-03-31T01:03:07;7.73;;;1.60;;
15363;SDS011;7781;49.690;6.472;2023-03-31T01:05:38;13.17;;;2.07;;
15363;SDS011;7781;49.690;6.472;2023-03-31T01:08:11;2.53;;;1.50;;
15363;SDS011;7781;49.690;6.472;2023-03-31T01:10:42;10.33;;;1.93;;
15363;SDS011;7781;49.690;6.472;2023-03-31T01:13:16;9.13;;;1.87;;
15363;SDS011;7781;49.690;6.472;2023-03-31T01:15:50;4.77;;;1.50;;
15363;SDS011;7781;49.690;6.472;2023-03-31T01:18:25;9.83;;;1.50;;
15363;SDS011;7781;49.690;6.472;2023-03-31T01:21:01;9.33;;;1.93;;
15363;SDS011;7781;49.690;6.472;2023-03-31T01:24:02;6.10;;;1.30;;
15363;SDS011;7781;49.690;6.472;2023-03-31T01:26:55;11.03;;;2.00;;
15363;SDS011;7781;49.690;6.472;2023-03-31T01:29:46;5.33;;;1.60;;
15363;SDS011;7781;49.690;6.472;2023-03-31T01:32:41;6.50;;;1.50;;
15363;SDS011;7781;49.690;6.472;2023-03-31T01:35:34;11.43;;;2.57;;
15363;SDS011;7781;49.690;6.472;2023-03-31T01:38:50;6.30;;;1.30;;
15363;SDS011;7781;49.690;6.472;2023-03-31T01:41:49;16.10;;;2.57;;
15363;SDS011;7781;49.690;6.472;2023-03-31T01:44:27;8.70;;;1.57;;
15363;SDS011;7781;49.690;6.472;2023-03-31T01:47:05;7.20;;;1.47;;
15363;SDS011;7781;49.690;6.472;2023-03-31T01:49:40;7.37;;;1.40;;
15363;SDS011;7781;49.690;6.472;2023-03-31T01:52:15;11.33;;;1.87;;
15363;SDS011;7781;49.690;6.472;2023-03-31T01:54:48;6.67;;;1.50;;
15363;SDS011;7781;49.690;6.472;2023-03-31T01:57:25;6.57;;;1.47;;
15363;SDS011;7781;49.690;6.472;2023-03-31T02:00:00;10.90;;;1.73;;
15363;SDS011;7781;49.690;6.472;2023-03-31T02:02:44;6.93;;;1.27;;
15363;SDS011;7781;49.690;6.472;2023-03-31T02:05:19;6.20;;;1.57;;
15363;SDS011;7781;49.690;6.472;2023-03-31T02:07:52;4.87;;;1.67;;
15363;SDS011;7781;49.690;6.472;2023-03-31T02:10:23;8.17;;;1.80;;
15363;SDS011;7781;49.690;6.472;2023-03-31T02:12:59;6.70;;;1.90;;
15363;SDS011;7781;49.690;6.472;2023-03-31T02:15:31;8.83;;;2.00;;
15363;SDS011;7781;49.690;6.472;2023-03-31T02:18:05;7.53;;;1.30;;
15363;SDS011;7781;49.690;6.472;2023-03-31T02:20:39;3.63;;;1.03;;
15363;SDS011;7781;49.690;6.472;2023-03-31T02:23:10;11.03;;;1.50;;
15363;SDS011;7781;49.690;6.472;2023-03-31T02:25:44;5.20;;;1.00;;
15363;SDS011;7781;49.690;6.472;2023-03-31T02:28:19;5.17;;;1.63;;
15363;SDS011;7781;49.690;6.472;2023-03-31T02:30:51;4.47;;;1.50;;
15363;SDS011;7781;49.690;6.472;2023-03-31T02:33:32;4.47;;;1.30;;
15363;SDS011;7781;49.690;6.472;2023-03-31T02:36:03;5.43;;;1.60;;
15363;SDS011;7781;49.690;6.472;2023-03-31T02:38:34;8.10;;;1.83;;
15363;SDS011;7781;49.690;6.472;2023-03-31T02:41:06;8.33;;;1.63;;
15363;SDS011;7781;49.690;6.472;2023-03-31T02:43:37;8.90;;;2.00;;
15363;SDS011;7781;49.690;6.472;2023-03-31T02:46:06;4.53;;;1.23;;
15363;SDS011;7781;49.690;6.472;2023-03-31T02:48:38;4.07;;;1.30;;
15363;SDS011;7781;49.690;6.472;2023-03-31T02:54:23;6.30;;;2.10;;
15363;SDS011;7781;49.690;6.472;2023-03-31T02:57:17;4.50;;;1.50;;
15363;SDS011;7781;49.690;6.472;2023-03-31T02:59:57;5.30;;;0.97;;
15363;SDS011;7781;49.690;6.472;2023-03-31T03:02:45;3.00;;;1.20;;
15363;SDS011;7781;49.690;6.472;2023-03-31T03:05:24;4.87;;;1.23;;
15363;SDS011;7781;49.690;6.472;2023-03-31T03:08:24;5.47;;;1.40;;
15363;SDS011;7781;49.690;6.472;2023-03-31T03:11:03;3.93;;;1.50;;
15363;SDS011;7781;49.690;6.472;2023-03-31T03:13:38;4.10;;;1.33;;
15363;SDS011;7781;49.690;6.472;2023-03-31T03:16:16;5.13;;;1.20;;
15363;SDS011;7781;49.690;6.472;2023-03-31T03:18:56;7.20;;;1.60;;
15363;SDS011;7781;49.690;6.472;2023-03-31T03:21:25;7.30;;;1.80;;
15363;SDS011;7781;49.690;6.472;2023-03-31T03:23:55;7.40;;;1.60;;
15363;SDS011;7781;49.690;6.472;2023-03-31T03:26:27;4.67;;;1.37;;
15363;SDS011;7781;49.690;6.472;2023-03-31T03:29:00;6.27;;;1.43;;
15363;SDS011;7781;49.690;6.472;2023-03-31T03:31:31;6.40;;;1.27;;
15363;SDS011;7781;49.690;6.472;2023-03-31T03:34:00;10.80;;;1.43;;
15363;SDS011;7781;49.690;6.472;2023-03-31T03:36:30;5.37;;;1.57;;
15363;SDS011;7781;49.690;6.472;2023-03-31T03:38:59;4.53;;;1.70;;
15363;SDS011;7781;49.690;6.472;2023-03-31T03:41:27;10.97;;;1.50;;
15363;SDS011;7781;49.690;6.472;2023-03-31T03:43:56;5.07;;;2.00;;
15363;SDS011;7781;49.690;6.472;2023-03-31T03:46:26;7.20;;;1.60;;
15363;SDS011;7781;49.690;6.472;2023-03-31T03:48:56;5.90;;;1.67;;
15363;SDS011;7781;49.690;6.472;2023-03-31T03:51:24;9.50;;;1.50;;
15363;SDS011;7781;49.690;6.472;2023-03-31T03:53:53;5.23;;;1.20;;
15363;SDS011;7781;49.690;6.472;2023-03-31T03:56:24;9.63;;;1.73;;
15363;SDS011;7781;49.690;6.472;2023-03-31T03:58:53;8.30;;;2.00;;
15363;SDS011;7781;49.690;6.472;2023-03-31T04:01:22;3.73;;;1.50;;
15363;SDS011;7781;49.690;6.472;2023-03-31T04:03:50;5.10;;;1.20;;
15363;SDS011;7781;49.690;6.472;2023-03-31T04:06:20;5.80;;;1.40;;
15363;SDS011;7781;49.690;6.472;2023-03-31T04:08:48;8.80;;;1.67;;
15363;SDS011;7781;49.690;6.472;2023-03-31T04:11:19;6.63;;;2.20;;
15363;SDS011;7781;49.690;6.472;2023-03-31T04:13:48;5.40;;;1.47;;
15363;SDS011;7781;49.690;6.472;2023-03-31T04:16:17;2.73;;;1.40;;
15363;SDS011;7781;49.690;6.472;2023-03-31T04:18:46;9.10;;;2.17;;
15363;SDS011;7781;49.690;6.472;2023-03-31T04:21:15;10.67;;;1.57;;
15363;SDS011;7781;49.690;6.472;2023-03-31T04:23:52;10.40;;;1.83;;
15363;SDS011;7781;49.690;6.472;2023-03-31T04:26:28;8.97;;;1.50;;
15363;SDS011;7781;49.690;6.472;2023-03-31T04:29:04;8.10;;;1.67;;
15363;SDS011;7781;49.690;6.472;2023-03-31T04:31:35;5.03;;;1.43;;
15363;SDS011;7781;49.690;6.472;2023-03-31T04:34:09;5.63;;;1.53;;
15363;SDS011;7781;49.690;6.472;2023-03-31T04:36:39;5.83;;;1.50;;
15363;SDS011;7781;49.690;6.472;2023-03-31T04:39:15;5.57;;;1.73;;
15363;SDS011;7781;49.690;6.472;2023-03-31T04:41:53;5.00;;;2.00;;
15363;SDS011;7781;49.690;6.472;2023-03-31T04:44:22;7.70;;;1.90;;
15363;SDS011;7781;49.690;6.472;2023-03-31T04:46:50;10.40;;;1.90;;
15363;SDS011;7781;49.690;6.472;2023-03-31T04:49:19;8.63;;;2.27;;
15363;SDS011;7781;49.690;6.472;2023-03-31T04:51:49;4.10;;;1.93;;
15363;SDS011;7781;49.690;6.472;2023-03-31T04:54:19;5.80;;;1.50;;
15363;SDS011;7781;49.690;6.472;2023-03-31T04:56:48;7.40;;;1.70;;
15363;SDS011;7781;49.690;6.472;2023-03-31T04:59:17;7.00;;;2.93;;
15363;SDS011;7781;49.690;6.472;2023-03-31T05:01:45;5.70;;;2.20;;
15363;SDS011;7781;49.690;6.472;2023-03-31T05:04:14;7.80;;;2.17;;
15363;SDS011;7781;49.690;6.472;2023-03-31T05:06:42;7.30;;;2.40;;
15363;SDS011;7781;49.690;6.472;2023-03-31T05:09:11;10.10;;;2.40;;
15363;SDS011;7781;49.690;6.472;2023-03-31T05:11:43;9.63;;;2.23;;
15363;SDS011;7781;49.690;6.472;2023-03-31T05:14:12;3.60;;;1.90;;
15363;SDS011;7781;49.690;6.472;2023-03-31T05:16:41;4.20;;;1.80;;
15363;SDS011;7781;49.690;6.472;2023-03-31T05:19:10;4.03;;;1.63;;
15363;SDS011;7781;49.690;6.472;2023-03-31T05:21:39;14.20;;;1.90;;
15363;SDS011;7781;49.690;6.472;2023-03-31T05:24:08;1.50;;;1.10;;
15363;SDS011;7781;49.690;6.472;2023-03-31T05:26:37;3.63;;;1.17;;
15363;SDS011;7781;49.690;6.472;2023-03-31T05:29:08;2.20;;;1.13;;
15363;SDS011;7781;49.690;6.472;2023-03-31T05:31:36;1.00;;;0.90;;
15363;SDS011;7781;49.690;6.472;2023-03-31T05:34:06;2.70;;;1.20;;
15363;SDS011;7781;49.690;6.472;2023-03-31T05:36:35;2.67;;;1.37;;
15363;SDS011;7781;49.690;6.472;2023-03-31T05:39:04;1.20;;;1.10;;
15363;SDS011;7781;49.690;6.472;2023-03-31T05:41:33;4.80;;;1.60;;
15363;SDS011;7781;49.690;6.472;2023-03-31T05:44:02;1.80;;;1.07;;
15363;SDS011;7781;49.690;6.472;2023-03-31T05:46:33;5.13;;;1.50;;
15363;SDS011;7781;49.690;6.472;2023-03-31T05:49:01;10.60;;;1.97;;
15363;SDS011;7781;49.690;6.472;2023-03-31T05:51:31;3.30;;;2.00;;
15363;SDS011;7781;49.690;6.472;2023-03-31T05:54:02;7.23;;;2.30;;
15363;SDS011;7781;49.690;6.472;2023-03-31T05:59:41;2.50;;;1.63;;
15363;SDS011;7781;49.690;6.472;2023-03-31T06:02:12;3.57;;;1.80;;
15363;SDS011;7781;49.690;6.472;2023-03-31T06:04:42;4.00;;;1.60;;
15363;SDS011;7781;49.690;6.472;2023-03-31T06:07:11;6.20;;;2.00;;
15363;SDS011;7781;49.690;6.472;2023-03-31T06:09:40;2.17;;;1.80;;
15363;SDS011;7781;49.690;6.472;2023-03-31T06:12:09;4.73;;;2.00;;
15363;SDS011;7781;49.690;6.472;2023-03-31T06:14:37;4.93;;;2.63;;
15363;SDS011;7781;49.690;6.472;2023-03-31T06:17:05;4.03;;;1.43;;
15363;SDS011;7781;49.690;6.472;2023-03-31T06:19:38;4.53;;;1.80;;
15363;SDS011;7781;49.690;6.472;2023-03-31T06:22:06;7.20;;;1.67;;
15363;SDS011;7781;49.690;6.472;2023-03-31T06:24:35;3.20;;;1.80;;
15363;SDS011;7781;49.690;6.472;2023-03-31T06:27:05;2.60;;;1.60;;
15363;SDS011;7781;49.690;6.472;2023-03-31T06:29:34;5.97;;;1.73;;
15363;SDS011;7781;49.690;6.472;2023-03-31T06:32:02;5.30;;;1.63;;
15363;SDS011;7781;49.690;6.472;2023-03-31T06:34:31;2.17;;;1.50;;
15363;SDS011;7781;49.690;6.472;2023-03-31T06:37:02;3.23;;;1.63;;
15363;SDS011;7781;49.690;6.472;2023-03-31T06:39:31;1.97;;;1.37;;
15363;SDS011;7781;49.690;6.472;2023-03-31T06:42:04;5.07;;;1.33;;
15363;SDS011;7781;49.690;6.472;2023-03-31T06:44:39;3.27;;;1.23;;
15363;SDS011;7781;49.690;6.472;2023-03-31T06:47:09;1.57;;;0.90;;
15363;SDS011;7781;49.690;6.472;2023-03-31T06:49:37;2.10;;;1.63;;
15363;SDS011;7781;49.690;6.472;2023-03-31T06:52:09;4.13;;;1.73;;
15363;SDS011;7781;49.690;6.472;2023-03-31T06:54:38;3.30;;;1.40;;
15363;SDS011;7781;49.690;6.472;2023-03-31T06:57:07;7.23;;;1.60;;
15363;SDS011;7781;49.690;6.472;2023-03-31T06:59:36;7.00;;;1.83;;
15363;SDS011;7781;49.690;6.472;2023-03-31T07:02:08;3.90;;;1.80;;
15363;SDS011;7781;49.690;6.472;2023-03-31T07:04:39;8.83;;;1.90;;
15363;SDS011;7781;49.690;6.472;2023-03-31T07:07:09;5.53;;;1.93;;
15363;SDS011;7781;49.690;6.472;2023-03-31T07:09:38;10.30;;;1.80;;
15363;SDS011;7781;49.690;6.472;2023-03-31T07:12:08;7.93;;;2.30;;
15363;SDS011;7781;49.690;6.472;2023-03-31T07:14:38;5.83;;;2.10;;
15363;SDS011;7781;49.690;6.472;2023-03-31T07:17:07;10.47;;;3.47;;
15363;SDS011;7781;49.690;6.472;2023-03-31T07:19:37;5.60;;;2.30;;
15363;SDS011;7781;49.690;6.472;2023-03-31T07:22:09;12.23;;;2.57;;
15363;SDS011;7781;49.690;6.472;2023-03-31T07:24:37;11.87;;;2.27;;
15363;SDS011;7781;49.690;6.472;2023-03-31T07:27:08;9.43;;;2.10;;
15363;SDS011;7781;49.690;6.472;2023-03-31T07:29:39;12.80;;;2.20;;
15363;SDS011;7781;49.690;6.472;2023-03-31T07:32:08;9.37;;;2.57;;
15363;SDS011;7781;49.690;6.472;2023-03-31T07:34:37;13.13;;;2.10;;
15363;SDS011;7781;49.690;6.472;2023-03-31T07:37:10;12.73;;;2.07;;
15363;SDS011;7781;49.690;6.472;2023-03-31T07:39:40;8.63;;;2.50;;
15363;SDS011;7781;49.690;6.472;2023-03-31T07:42:09;11.10;;;2.47;;
15363;SDS011;7781;49.690;6.472;2023-03-31T07:44:38;17.70;;;3.07;;
15363;SDS011;7781;49.690;6.472;2023-03-31T07:47:09;12.97;;;2.40;;
15363;SDS011;7781;49.690;6.472;2023-03-31T07:49:39;17.17;;;2.47;;
15363;SDS011;7781;49.690;6.472;2023-03-31T07:52:09;13.13;;;2.60;;
15363;SDS011;7781;49.690;6.472;2023-03-31T07:54:38;18.50;;;3.03;;
15363;SDS011;7781;49.690;6.472;2023-03-31T07:57:06;11.90;;;2.70;;
15363;SDS011;7781;49.690;6.472;2023-03-31T07:59:36;12.50;;;2.27;;
15363;SDS011;7781;49.690;6.472;2023-03-31T08:02:05;10.50;;;2.50;;
15363;SDS011;7781;49.690;6.472;2023-03-31T08:04:34;9.87;;;2.87;;
15363;SDS011;7781;49.690;6.472;2023-03-31T08:07:04;17.53;;;3.27;;
15363;SDS011;7781;49.690;6.472;2023-03-31T08:09:34;12.57;;;2.87;;
15363;SDS011;7781;49.690;6.472;2023-03-31T08:12:05;10.63;;;2.20;;
15363;SDS011;7781;49.690;6.472;2023-03-31T08:14:33;13.87;;;2.70;;
15363;SDS011;7781;49.690;6.472;2023-03-31T08:17:06;13.73;;;3.07;;
15363;SDS011;7781;49.690;6.472;2023-03-31T08:19:36;15.20;;;2.40;;
15363;SDS011;7781;49.690;6.472;2023-03-31T08:22:06;3.90;;;1.67;;
15363;SDS011;7781;49.690;6.472;2023-03-31T08:24:36;8.27;;;2.10;;
15363;SDS011;7781;49.690;6.472;2023-03-31T08:27:05;7.83;;;1.73;;
15363;SDS011;7781;49.690;6.472;2023-03-31T08:29:37;4.97;;;1.90;;
15363;SDS011;7781;49.690;6.472;2023-03-31T08:32:06;2.77;;;1.30;;
15363;SDS011;7781;49.690;6.472;2023-03-31T08:34:35;4.20;;;1.37;;
15363;SDS011;7781;49.690;6.472;2023-03-31T08:37:06;5.53;;;1.23;;
15363;SDS011;7781;49.690;6.472;2023-03-31T08:39:37;2.37;;;1.00;;
15363;SDS011;7781;49.690;6.472;2023-03-31T08:42:09;3.43;;;1.27;;
15363;SDS011;7781;49.690;6.472;2023-03-31T08:44:43;6.00;;;1.10;;
15363;SDS011;7781;49.690;6.472;2023-03-31T08:47:17;9.40;;;1.43;;
15363;SDS011;7781;49.690;6.472;2023-03-31T08:49:49;3.53;;;1.37;;
15363;SDS011;7781;49.690;6.472;2023-03-31T08:52:21;6.63;;;1.33;;
15363;SDS011;7781;49.690;6.472;2023-03-31T08:54:58;5.57;;;1.57;;
15363;SDS011;7781;49.690;6.472;2023-03-31T08:57:31;10.37;;;1.53;;
15363;SDS011;7781;49.690;6.472;2023-03-31T09:00:13;3.17;;;1.37;;
15363;SDS011;7781;49.690;6.472;2023-03-31T09:02:45;7.67;;;1.30;;
15363;SDS011;7781;49.690;6.472;2023-03-31T09:05:22;11.67;;;1.87;;
15363;SDS011;7781;49.690;6.472;2023-03-31T09:08:30;9.50;;;1.53;;
15363;SDS011;7781;49.690;6.472;2023-03-31T09:11:05;9.13;;;2.20;;
15363;SDS011;7781;49.690;6.472;2023-03-31T09:16:31;10.30;;;2.20;;
15363;SDS011;7781;49.690;6.472;2023-03-31T09:19:07;15.73;;;2.83;;
15363;SDS011;7781;49.690;6.472;2023-03-31T09:21:43;17.43;;;4.33;;
15363;SDS011;7781;49.690;6.472;2023-03-31T09:24:20;7.73;;;2.30;;
15363;SDS011;7781;49.690;6.472;2023-03-31T09:26:59;15.37;;;2.97;;
15363;SDS011;7781;49.690;6.472;2023-03-31T09:29:33;9.00;;;2.40;;
15363;SDS011;7781;49.690;6.472;2023-03-31T09:32:11;15.67;;;2.83;;
15363;SDS011;7781;49.690;6.472;2023-03-31T09:34:42;19.23;;;3.40;;
15363;SDS011;7781;49.690;6.472;2023-03-31T09:37:14;29.20;;;4.07;;
15363;SDS011;7781;49.690;6.472;2023-03-31T09:39:45;20.10;;;3.00;;
15363;SDS011;7781;49.690;6.472;2023-03-31T09:42:16;11.10;;;2.77;;
15363;SDS011;7781;49.690;6.472;2023-03-31T09:44:46;17.03;;;2.97;;
15363;SDS011;7781;49.690;6.472;2023-03-31T09:47:18;11.27;;;3.17;;
15363;SDS011;7781;49.690;6.472;2023-03-31T09:49:54;11.23;;;2.23;;
15363;SDS011;7781;49.690;6.472;2023-03-31T09:52:25;21.03;;;3.70;;
15363;SDS011;7781;49.690;6.472;2023-03-31T09:54:57;9.90;;;2.70;;
15363;SDS011;7781;49.690;6.472;2023-03-31T09:57:30;16.00;;;3.10;;
15363;SDS011;7781;49.690;6.472;2023-03-31T10:00:03;18.60;;;3.03;;
15363;SDS011;7781;49.690;6.472;2023-03-31T10:02:42;15.50;;;2.90;;
15363;SDS011;7781;49.690;6.472;2023-03-31T10:05:21;15.53;;;2.87;;
15363;SDS011;7781;49.690;6.472;2023-03-31T10:08:09;13.23;;;2.80;;
15363;SDS011;7781;49.690;6.472;2023-03-31T10:10:47;16.23;;;3.00;;
15363;SDS011;7781;49.690;6.472;2023-03-31T10:13:19;16.80;;;4.23;;
15363;SDS011;7781;49.690;6.472;2023-03-31T10:15:51;17.30;;;2.90;;
15363;SDS011;7781;49.690;6.472;2023-03-31T10:18:22;19.47;;;3.67;;
15363;SDS011;7781;49.690;6.472;2023-03-31T10:21:01;17.80;;;3.40;;
15363;SDS011;7781;49.690;6.472;2023-03-31T10:23:33;14.97;;;2.70;;
15363;SDS011;7781;49.690;6.472;2023-03-31T10:26:02;12.13;;;3.27;;
15363;SDS011;7781;49.690;6.472;2023-03-31T10:28:34;8.57;;;2.20;;
15363;SDS011;7781;49.690;6.472;2023-03-31T10:31:03;11.67;;;2.80;;
15363;SDS011;7781;49.690;6.472;2023-03-31T10:33:34;22.47;;;3.40;;
15363;SDS011;7781;49.690;6.472;2023-03-31T10:36:13;11.47;;;2.30;;
15363;SDS011;7781;49.690;6.472;2023-03-31T10:38:48;10.27;;;2.60;;
15363;SDS011;7781;49.690;6.472;2023-03-31T10:41:17;10.80;;;2.20;;
15363;SDS011;7781;49.690;6.472;2023-03-31T10:43:54;12.43;;;2.77;;
15363;SDS011;7781;49.690;6.472;2023-03-31T10:46:38;12.77;;;2.53;;
15363;SDS011;7781;49.690;6.472;2023-03-31T10:49:14;12.53;;;2.03;;
15363;SDS011;7781;49.690;6.472;2023-03-31T10:51:51;11.30;;;1.60;;
15363;SDS011;7781;49.690;6.472;2023-03-31T10:54:21;10.17;;;2.20;;
15363;SDS011;7781;49.690;6.472;2023-03-31T10:56:50;6.13;;;2.13;;
15363;SDS011;7781;49.690;6.472;2023-03-31T10:59:29;6.97;;;2.17;;
15363;SDS011;7781;49.690;6.472;2023-03-31T11:02:14;8.57;;;2.07;;
15363;SDS011;7781;49.690;6.472;2023-03-31T11:05:10;8.00;;;1.97;;
15363;SDS011;7781;49.690;6.472;2023-03-31T11:07:49;10.77;;;2.90;;
15363;SDS011;7781;49.690;6.472;2023-03-31T11:10:31;9.00;;;2.47;;
15363;SDS011;7781;49.690;6.472;2023-03-31T11:13:08;15.63;;;2.17;;
15363;SDS011;7781;49.690;6.472;2023-03-31T11:15:45;7.80;;;2.13;;
15363;SDS011;7781;49.690;6.472;2023-03-31T11:18:32;5.83;;;1.87;;
15363;SDS011;7781;49.690;6.472;2023-03-31T11:21:09;7.40;;;1.67;;
15363;SDS011;7781;49.690;6.472;2023-03-31T11:23:49;5.40;;;1.53;;
15363;SDS011;7781;49.690;6.472;2023-03-31T11:26:30;9.03;;;2.00;;
15363;SDS011;7781;49.690;6.472;2023-03-31T11:29:16;10.67;;;1.50;;
15363;SDS011;7781;49.690;6.472;2023-03-31T11:32:02;7.70;;;2.00;;
15363;SDS011;7781;49.690;6.472;2023-03-31T11:34:57;7.77;;;2.07;;
15363;SDS011;7781;49.690;6.472;2023-03-31T11:37:47;7.17;;;1.73;;
15363;SDS011;7781;49.690;6.472;2023-03-31T11:40:30;4.47;;;1.27;;
15363;SDS011;7781;49.690;6.472;2023-03-31T11:43:10;3.90;;;1.17;;
15363;SDS011;7781;49.690;6.472;2023-03-31T11:45:44;7.60;;;1.60;;
15363;SDS011;7781;49.690;6.472;2023-03-31T11:48:24;6.50;;;1.43;;
15363;SDS011;7781;49.690;6.472;2023-03-31T11:50:59;5.80;;;1.60;;
15363;SDS011;7781;49.690;6.472;2023-03-31T11:53:32;4.73;;;1.70;;
15363;SDS011;7781;49.690;6.472;2023-03-31T11:56:03;4.10;;;1.23;;
15363;SDS011;7781;49.690;6.472;2023-03-31T11:58:37;4.67;;;1.20;;
15363;SDS011;7781;49.690;6.472;2023-03-31T12:01:13;3.20;;;1.10;;
15363;SDS011;7781;49.690;6.472;2023-03-31T12:03:53;8.83;;;1.50;;
15363;SDS011;7781;49.690;6.472;2023-03-31T12:06:29;8.53;;;1.47;;
15363;SDS011;7781;49.690;6.472;2023-03-31T12:09:09;10.53;;;1.67;;
15363;SDS011;7781;49.690;6.472;2023-03-31T12:11:45;6.73;;;1.63;;
15363;SDS011;7781;49.690;6.472;2023-03-31T12:14:22;8.67;;;1.63;;
15363;SDS011;7781;49.690;6.472;2023-03-31T12:16:57;9.80;;;1.53;;
15363;SDS011;7781;49.690;6.472;2023-03-31T12:19:34;6.33;;;1.63;;
15363;SDS011;7781;49.690;6.472;2023-03-31T12:22:12;5.20;;;1.50;;
15363;SDS011;7781;49.690;6.472;2023-03-31T12:24:45;9.13;;;1.93;;
15363;SDS011;7781;49.690;6.472;2023-03-31T12:27:15;13.70;;;2.33;;
15363;SDS011;7781;49.690;6.472;2023-03-31T12:29:51;12.67;;;2.10;;
15363;SDS011;7781;49.690;6.472;2023-03-31T12:32:24;8.73;;;1.67;;
15363;SDS011;7781;49.690;6.472;2023-03-31T12:34:57;14.57;;;2.57;;
15363;SDS011;7781;49.690;6.472;2023-03-31T12:37:35;5.83;;;2.10;;
15363;SDS011;7781;49.690;6.472;2023-03-31T12:40:24;5.97;;;2.03;;
15363;SDS011;7781;49.690;6.472;2023-03-31T12:45:56;9.43;;;2.27;;
15363;SDS011;7781;49.690;6.472;2023-03-31T12:48:47;6.40;;;1.80;;
15363;SDS011;7781;49.690;6.472;2023-03-31T12:51:34;9.27;;;1.90;;
15363;SDS011;7781;49.690;6.472;2023-03-31T12:54:24;10.83;;;3.10;;
15363;SDS011;7781;49.690;6.472;2023-03-31T12:57:11;12.60;;;2.07;;
15363;SDS011;7781;49.690;6.472;2023-03-31T12:59:43;8.27;;;2.37;;
15363;SDS011;7781;49.690;6.472;2023-03-31T13:02:23;11.10;;;2.30;;
15363;SDS011;7781;49.690;6.472;2023-03-31T13:04:52;10.60;;;2.30;;
15363;SDS011;7781;49.690;6.472;2023-03-31T13:07:38;7.20;;;2.00;;
15363;SDS011;7781;49.690;6.472;2023-03-31T13:10:24;2.03;;;0.90;;
15363;SDS011;7781;49.690;6.472;2023-03-31T13:13:00;1.80;;;1.20;;
15363;SDS011;7781;49.690;6.472;2023-03-31T13:15:33;1.00;;;0.80;;
15363;SDS011;7781;49.690;6.472;2023-03-31T13:18:03;1.00;;;0.90;;
15363;SDS011;7781;49.690;6.472;2023-03-31T13:20:33;1.40;;;0.80;;
15363;SDS011;7781;49.690;6.472;2023-03-31T13:23:12;1.27;;;0.70;;
15363;SDS011;7781;49.690;6.472;2023-03-31T13:25:46;4.23;;;1.20;;
15363;SDS011;7781;49.690;6.472;2023-03-31T13:28:36;5.20;;;1.27;;
15363;SDS011;7781;49.690;6.472;2023-03-31T13:31:08;4.03;;;1.50;;
15363;SDS011;7781;49.690;6.472;2023-03-31T13:33:45;4.10;;;0.90;;
15363;SDS011;7781;49.690;6.472;2023-03-31T13:39:38;6.40;;;1.40;;
15363;SDS011;7781;49.690;6.472;2023-03-31T13:45:41;6.50;;;1.37;;
15363;SDS011;7781;49.690;6.472;2023-03-31T13:48:32;7.37;;;2.07;;
15363;SDS011;7781;49.690;6.472;2023-03-31T13:51:18;11.27;;;2.10;;
15363;SDS011;7781;49.690;6.472;2023-03-31T13:54:02;9.20;;;2.00;;
15363;SDS011;7781;49.690;6.472;2023-03-31T13:57:02;5.87;;;1.63;;
15363;SDS011;7781;49.690;6.472;2023-03-31T14:03:20;4.40;;;1.37;;
15363;SDS011;7781;49.690;6.472;2023-03-31T14:05:58;10.73;;;2.10;;
15363;SDS011;7781;49.690;6.472;2023-03-31T14:08:35;5.47;;;1.70;;
15363;SDS011;7781;49.690;6.472;2023-03-31T14:11:16;11.20;;;2.10;;
15363;SDS011;7781;49.690;6.472;2023-03-31T14:13:59;11.93;;;2.23;;
15363;SDS011;7781;49.690;6.472;2023-03-31T14:16:30;6.37;;;2.33;;
15363;SDS011;7781;49.690;6.472;2023-03-31T14:19:07;4.60;;;1.60;;
15363;SDS011;7781;49.690;6.472;2023-03-31T14:21:47;5.70;;;1.70;;
15363;SDS011;7781;49.690;6.472;2023-03-31T14:24:23;5.97;;;1.77;;
15363;SDS011;7781;49.690;6.472;2023-03-31T14:27:01;11.30;;;1.63;;
15363;SDS011;7781;49.690;6.472;2023-03-31T14:29:41;6.17;;;1.00;;
15363;SDS011;7781;49.690;6.472;2023-03-31T14:32:20;4.93;;;1.30;;
15363;SDS011;7781;49.690;6.472;2023-03-31T14:35:02;4.20;;;1.30;;
15363;SDS011;7781;49.690;6.472;2023-03-31T14:37:54;6.07;;;1.20;;
15363;SDS011;7781;49.690;6.472;2023-03-31T14:40:24;7.93;;;1.07;;
15363;SDS011;7781;49.690;6.472;2023-03-31T14:42:55;3.20;;;1.13;;
15363;SDS011;7781;49.690;6.472;2023-03-31T14:45:29;2.77;;;1.07;;
15363;SDS011;7781;49.690;6.472;2023-03-31T14:48:02;6.50;;;1.30;;
15363;SDS011;7781;49.690;6.472;2023-03-31T14:50:41;5.20;;;1.70;;
15363;SDS011;7781;49.690;6.472;2023-03-31T14:53:14;4.47;;;1.30;;
15363;SDS011;7781;49.690;6.472;2023-03-31T14:55:46;5.17;;;1.33;;
15363;SDS011;7781;49.690;6.472;2023-03-31T14:58:25;8.00;;;2.33;;
15363;SDS011;7781;49.690;6.472;2023-03-31T15:00:59;6.23;;;1.87;;
15363;SDS011;7781;49.690;6.472;2023-03-31T15:03:29;7.27;;;1.70;;
15363;SDS011;7781;49.690;6.472;2023-03-31T15:05:59;3.97;;;1.40;;
15363;SDS011;7781;49.690;6.472;2023-03-31T15:08:30;6.90;;;1.60;;
15363;SDS011;7781;49.690;6.472;2023-03-31T15:11:03;7.57;;;1.77;;
15363;SDS011;7781;49.690;6.472;2023-03-31T15:13:40;3.87;;;1.37;;
15363;SDS011;7781;49.690;6.472;2023-03-31T15:16:35;5.77;;;1.63;;
15363;SDS011;7781;49.690;6.472;2023-03-31T15:19:13;3.07;;;0.90;;
15363;SDS011;7781;49.690;6.472;2023-03-31T15:21:44;8.90;;;1.50;;
15363;SDS011;7781;49.690;6.472;2023-03-31T15:24:13;4.27;;;1.80;;
15363;SDS011;7781;49.690;6.472;2023-03-31T15:26:43;4.80;;;1.37;;
15363;SDS011;7781;49.690;6.472;2023-03-31T15:29:18;6.10;;;1.83;;
15363;SDS011;7781;49.690;6.472;2023-03-31T15:31:56;7.17;;;1.57;;
15363;SDS011;7781;49.690;6.472;2023-03-31T15:34:26;5.17;;;1.60;;
15363;SDS011;7781;49.690;6.472;2023-03-31T15:37:00;5.30;;;1.30;;
15363;SDS011;7781;49.690;6.472;2023-03-31T15:39:29;4.57;;;1.37;;
15363;SDS011;7781;49.690;6.472;2023-03-31T15:42:00;3.17;;;1.30;;
15363;SDS011;7781;49.690;6.472;2023-03-31T15:44:37;3.60;;;1.17;;
15363;SDS011;7781;49.690;6.472;2023-03-31T15:47:16;3.37;;;1.20;;
15363;SDS011;7781;49.690;6.472;2023-03-31T15:49:50;3.83;;;1.00;;
15363;SDS011;7781;49.690;6.472;2023-03-31T15:52:25;4.30;;;1.30;;
15363;SDS011;7781;49.690;6.472;2023-03-31T15:57:54;2.57;;;1.00;;
15363;SDS011;7781;49.690;6.472;2023-03-31T16:00:42;4.90;;;1.60;;
15363;SDS011;7781;49.690;6.472;2023-03-31T16:03:15;3.07;;;1.20;;
15363;SDS011;7781;49.690;6.472;2023-03-31T16:05:50;4.67;;;1.67;;
15363;SDS011;7781;49.690;6.472;2023-03-31T16:08:22;5.53;;;1.50;;
15363;SDS011;7781;49.690;6.472;2023-03-31T16:10:55;6.07;;;1.80;;